Cuneyt Solakoglu — TCTN4 — position and weather

sailwx.info

Track history (hours):
 
Tides and Currents Weather Stations Pressure Air Temp Water Temp Dewpoint Dewpoint Depression Visibility Wind Speed Wind Dir Waves Ship Positions

Cuneyt Solakoglu

Last reported at 2014-Nov-27 01:10 UTC. Time now 2014-Nov-27 06:48 UTC.
Position N 39°55' E 025°57'.

Length 193 m; draft 6.7 m.

Type: Ship (hazmat cat A). MMSI: 271002676.

Date/timePositionNaut miles runAvg speedWind from/ knotsBaromVisibWave heightAir tempDewpointWater temp
2014-Nov-27 01:10N 39°55' E 025°57'16519.0
2014-Nov-26 16:29N 37°34' E 024°09'  
2014-Nov-22 14:10N 37°24' E 023°58'1320.7
2014-Nov-22 13:33N 37°34' E 024°06'2420.4
2014-Nov-22 12:21N 37°52' E 024°28'26317.7
2014-Nov-21 21:27N 40°52' E 028°36'1719.2
2014-Nov-21 20:33N 40°50' E 028°59'1311.5
2014-Nov-21 19:25N 40°51' E 029°16'0 0.0
2014-Nov-21 18:30N 40°51' E 029°16'0 0.0
2014-Nov-21 17:30N 40°51' E 029°16'0 0.0
2014-Nov-21 16:29N 40°51' E 029°16'0 0.0
2014-Nov-21 15:23N 40°51' E 029°16'0 0.0
2014-Nov-21 14:23N 40°51' E 029°16'0 0.0
2014-Nov-21 13:28N 40°51' E 029°16'0 0.0
2014-Nov-21 12:28N 40°51' E 029°16'0 0.0
2014-Nov-21 11:33N 40°51' E 029°16'0 0.0
2014-Nov-21 10:15N 40°51' E 029°16'0 0.0
2014-Nov-21 09:32N 40°51' E 029°16'287 7.0
2014-Nov-19 16:17N 37°46' E 024°33'1520.2
2014-Nov-19 15:34N 37°33' E 024°24'2120.6
2014-Nov-19 14:33N 37°17' E 024°08'2119.9
2014-Nov-19 13:30N 37°00' E 023°52'1919.8
2014-Nov-19 12:34N 36°45' E 023°39'3919.1
2014-Nov-19 10:32N 36°25' E 022°58'2419.6
2014-Nov-19 09:19N 36°21' E 022°29'  
Track history (hours):
 
Tides and Currents Weather Stations Pressure Air Temp Water Temp Dewpoint Dewpoint Depression Visibility Wind Speed Wind Dir Waves Ship Positions

Cuneyt Solakoglu

Last reported at 2014-Nov-27 01:10 UTC. Time now 2014-Nov-27 06:48 UTC.
Position N 39°55' E 025°57'.

Length 193 m; draft 6.7 m.

Type: Ship (hazmat cat A). MMSI: 271002676.

Date/timePositionNaut miles runAvg speedWind from/ knotsBaromVisibWave heightAir tempDewpointWater temp
2014-Nov-27 01:10N 39°55' E 025°57'16519.0
2014-Nov-26 16:29N 37°34' E 024°09'  
2014-Nov-22 14:10N 37°24' E 023°58'1320.7
2014-Nov-22 13:33N 37°34' E 024°06'2420.4
2014-Nov-22 12:21N 37°52' E 024°28'26317.7
2014-Nov-21 21:27N 40°52' E 028°36'1719.2
2014-Nov-21 20:33N 40°50' E 028°59'1311.5
2014-Nov-21 19:25N 40°51' E 029°16'0 0.0
2014-Nov-21 18:30N 40°51' E 029°16'0 0.0
2014-Nov-21 17:30N 40°51' E 029°16'0 0.0
2014-Nov-21 16:29N 40°51' E 029°16'0 0.0
2014-Nov-21 15:23N 40°51' E 029°16'0 0.0
2014-Nov-21 14:23N 40°51' E 029°16'0 0.0
2014-Nov-21 13:28N 40°51' E 029°16'0 0.0
2014-Nov-21 12:28N 40°51' E 029°16'0 0.0
2014-Nov-21 11:33N 40°51' E 029°16'0 0.0
2014-Nov-21 10:15N 40°51' E 029°16'0 0.0
2014-Nov-21 09:32N 40°51' E 029°16'287 7.0
2014-Nov-19 16:17N 37°46' E 024°33'1520.2
2014-Nov-19 15:34N 37°33' E 024°24'2120.6
2014-Nov-19 14:33N 37°17' E 024°08'2119.9
2014-Nov-19 13:30N 37°00' E 023°52'1919.8
2014-Nov-19 12:34N 36°45' E 023°39'3919.1
2014-Nov-19 10:32N 36°25' E 022°58'2419.6
2014-Nov-19 09:19N 36°21' E 022°29'  

Dump ship's entire track history